Latest Weather Observations for Wynyard

IDT60801

Issued at 5:35 pm EST Friday 1 August 2014 (issued every 30 minutes, with the page automatically refreshed every 10 minutes)

About weather observations | Map of weather stations | Latest weather observations for TAS | Other Formats
Station Details ID: 091107 Name: WYNYARD AIRPORT Lat: -41.00 Lon: 145.73 Height: 12.0 m
Data from the previous 72 hours. | See also: Recent months at Wynyard
Date/Time
EST
Temp
°C
App
Temp
°C
Dew
Point
Rel
Hum
%
Delta-T
°C
Wind Press
QNH
hPa
Press
MSL
hPa
Rain
since 9 am
mm
Dir
 
Spd
km/h
Gust
km/h
Spd
kts
Gust
kts
01/05:30pm 7.0 3.1 1.1 66 2.4 S 11 19 6 10 1008.3 - 0.2
01/05:00pm 7.3 3.5 1.6 67 2.3 S 11 17 6 9 1006.7 1006.8 0.2
01/04:30pm 7.5 0.9 1.8 67 2.3 SSW 26 43 14 23 1005.5 - 0.2
01/04:01pm 7.6 0.2 1.9 67 2.3 SSW 30 48 16 26 1004.4 - 0.2
01/04:00pm 7.6 0.6 1.9 67 2.3 SSW 28 43 15 23 1004.5 1004.6 0.2
01/03:30pm 7.5 1.3 2.0 68 2.3 SSW 24 35 13 19 1003.2 - 0.2
01/03:00pm 7.1 -0.2 2.2 71 2.0 SSW 30 43 16 23 1002.1 1002.2 0.2
01/02:30pm 6.9 -2.2 1.6 69 2.1 SSW 39 67 21 36 1001.6 - 0.2
01/02:03pm 6.7 -3.2 1.6 70 2.1 SSW 43 61 23 33 1000.4 - 0.2
01/02:00pm 6.8 -3.3 1.7 70 2.1 SSW 44 61 24 33 1000.1 1000.1 0.2
01/01:44pm 7.2 -1.1 2.1 70 2.1 SSW 35 56 19 30 998.6 - 0.2
01/01:42pm 7.3 -0.4 2.4 71 2.0 SSW 32 44 17 24 998.6 - 0.2
01/01:30pm 8.1 -0.7 3.6 73 1.9 SW 39 63 21 34 998.5 - 0.0
01/01:01pm 8.4 0.2 4.8 78 1.6 SW 37 61 20 33 998.9 - 0.0
01/01:00pm 8.2 0.7 4.2 76 1.8 SW 33 46 18 25 999.0 999.0 0.0
01/12:30pm 7.0 0.5 4.8 86 1.0 W 28 37 15 20 998.7 - 0.0
01/12:00pm 7.5 0.4 5.6 88 0.9 W 32 46 17 25 998.7 998.7 0.0
01/11:30am 8.1 1.6 4.7 79 1.5 W 28 37 15 20 998.4 - 0.0
01/11:26am 8.3 1.9 5.1 80 1.4 W 28 43 15 23 998.3 - 0.0
01/11:00am 7.5 3.3 5.6 88 0.9 W 17 22 9 12 998.1 998.1 0.0
01/10:30am 6.1 1.8 5.1 93 0.4 W 17 22 9 12 997.4 - 0.0
01/10:00am 4.7 -0.2 4.0 95 0.3 W 19 24 10 13 996.8 996.8 0.0
01/09:30am 5.3 0.9 4.6 95 0.3 WNW 17 20 9 11 996.5 - 0.0
01/09:00am 4.8 -0.8 3.5 91 0.5 WSW 22 37 12 20 996.8 996.8 8.0
01/08:30am 4.4 -0.5 4.3 99 0.0 W 19 24 10 13 996.2 - 7.8
01/08:00am 4.1 0.3 4.0 99 0.0 WSW 13 17 7 9 995.1 995.1 7.8
01/07:30am 4.4 1.0 4.1 98 0.1 W 11 15 6 8 994.1 - 7.8
01/07:00am 5.0 1.8 4.9 99 0.0 W 11 17 6 9 994.2 994.2 7.6
01/06:30am 5.3 0.3 4.7 96 0.3 WSW 20 32 11 17 993.5 - 7.6
01/06:00am 5.1 1.1 5.0 99 0.0 SW 15 22 8 12 992.5 992.5 6.8
01/05:30am 3.4 0.8 3.3 99 0.0 ESE 6 7 3 4 992.7 - 6.8
01/05:00am 3.0 1.5 2.9 99 0.0 CALM 0 0 0 0 992.1 992.1 6.8
01/04:30am 4.1 1.6 3.8 98 0.1 SSW 6 9 3 5 991.9 - 6.8
01/04:00am 4.6 1.5 3.7 94 0.4 W 9 13 5 7 991.8 991.8 6.8
01/03:30am 5.4 0.6 4.5 94 0.4 W 19 32 10 17 992.8 - 6.8
01/03:00am 5.3 2.3 4.0 91 0.6 W 9 13 5 7 993.0 993.0 6.4
01/02:30am 5.4 1.6 3.9 90 0.6 W 13 20 7 11 993.1 - 6.4
01/02:00am 5.2 -0.4 3.4 88 0.8 W 22 33 12 18 993.0 993.0 6.4
01/01:44am 5.5 -1.6 3.5 87 0.8 WNW 30 56 16 30 993.3 - 6.4
01/01:30am 4.7 2.0 3.7 93 0.4 SSW 7 9 4 5 992.7 - 6.2
01/01:00am 4.3 1.0 2.5 88 0.7 W 9 13 5 7 992.6 992.6 6.2
01/12:30am 5.8 -2.0 2.6 80 1.3 W 33 54 18 29 992.7 - 6.2
01/12:18am 5.7 -1.1 3.0 83 1.1 W 28 50 15 27 992.6 - 6.2
01/12:00am 5.1 0.0 3.0 86 0.9 W 19 28 10 15 992.6 992.6 6.2
 
Date/Time
EST
Temp
°C
App
Temp
°C
Dew
Point
Rel
Hum
%
Delta-T
°C
Wind Press
QNH
hPa
Press
MSL
hPa
Rain
since 9 am
mm
Dir
 
Spd
km/h
Gust
km/h
Spd
kts
Gust
kts
31/11:30pm 5.4 -0.3 2.9 84 1.0 W 22 30 12 16 992.3 - 6.2
31/11:00pm 5.5 -0.6 3.0 84 1.0 W 24 33 13 18 992.0 992.0 6.2
31/10:40pm 5.7 -1.2 2.5 80 1.3 W 28 54 15 29 991.7 - 6.2
31/10:30pm 5.6 -0.7 3.6 87 0.8 W 26 39 14 21 992.1 - 6.2
31/10:00pm 5.5 0.6 4.0 90 0.6 W 19 26 10 14 991.4 991.4 6.2
31/09:30pm 5.8 -0.9 3.8 87 0.8 W 28 41 15 22 990.6 - 6.2
31/09:05pm 6.0 -0.9 4.5 90 0.6 W 30 43 16 23 990.7 - 6.2
31/09:00pm 6.1 -0.8 4.6 90 0.7 WNW 30 39 16 21 990.6 990.6 6.2
31/08:54pm 6.0 -0.9 4.6 91 0.6 WNW 30 39 16 21 990.5 - 6.2
31/08:34pm 6.3 -0.4 3.8 84 1.1 W 28 46 15 25 989.8 - 5.4
31/08:30pm 6.4 -1.1 3.6 82 1.2 W 32 46 17 25 989.6 - 5.4
31/08:13pm 7.2 -1.2 3.8 79 1.5 W 37 56 20 30 989.3 - 5.4
31/08:07pm 7.6 0.5 3.3 74 1.8 WNW 30 52 16 28 989.0 - 5.4
31/08:00pm 7.5 1.5 3.6 76 1.7 WNW 24 35 13 19 989.0 989.0 5.4
31/07:30pm 6.6 1.6 3.6 81 1.3 WNW 19 32 10 17 988.9 - 5.4
31/07:00pm 6.5 0.6 3.7 82 1.2 W 24 33 13 18 988.5 988.5 5.4
31/06:30pm 6.6 0.3 3.8 82 1.2 W 26 35 14 19 988.2 - 5.4
31/06:19pm 6.8 -0.5 4.5 85 1.0 W 32 39 17 21 988.3 - 5.4
31/06:01pm 7.4 0.2 5.0 85 1.1 W 32 57 17 31 988.7 - 5.4
31/06:00pm 7.4 0.6 5.0 85 1.1 W 30 57 16 31 988.6 988.6 5.4
31/05:59pm 7.4 0.9 4.5 82 1.3 W 28 57 15 31 988.5 - 5.2
31/05:30pm 8.4 1.0 4.0 74 1.9 WNW 32 43 17 23 987.2 - 4.6
31/05:17pm 8.4 1.4 4.2 75 1.8 WNW 30 48 16 26 987.3 - 4.6
31/05:00pm 8.0 0.7 4.6 79 1.5 WNW 32 43 17 23 986.8 986.8 4.6
31/04:30pm 7.8 -1.1 4.9 82 1.3 W 41 56 22 30 986.9 - 4.6
31/04:10pm 8.8 -2.5 5.5 80 1.5 W 54 74 29 40 986.6 - 4.6
31/04:01pm 9.1 2.0 5.5 78 1.6 W 32 54 17 29 986.1 - 4.6
31/04:00pm 9.2 2.1 5.6 78 1.7 W 32 46 17 25 986.1 986.1 4.6
31/03:34pm 9.2 1.0 5.0 75 1.9 WNW 37 56 20 30 986.1 - 4.6
31/03:30pm 9.1 0.9 4.9 75 1.9 WNW 37 54 20 29 986.2 - 4.6
31/03:25pm 9.0 1.5 4.6 74 1.9 WNW 33 52 18 28 986.1 - 4.6
31/03:00pm 7.9 0.9 6.8 93 0.5 WNW 33 50 18 27 986.8 986.8 4.6
31/02:34pm 8.0 1.2 6.9 93 0.5 W 32 52 17 28 986.3 - 4.0
31/02:30pm 8.4 2.2 7.8 96 0.3 WNW 30 44 16 24 986.6 - 4.0
31/02:00pm 8.9 3.3 7.2 89 0.8 W 26 37 14 20 986.3 986.3 3.2
31/01:30pm 9.0 3.6 7.9 93 0.5 W 26 39 14 21 985.8 - 3.2
31/01:20pm 8.9 3.0 7.7 92 0.6 W 28 48 15 26 986.0 - 3.0
31/01:00pm 9.1 4.2 8.3 95 0.4 W 24 33 13 18 985.8 985.8 2.8
31/12:30pm 9.5 0.2 7.6 88 0.9 W 46 69 25 37 984.7 - 2.2
31/12:28pm 9.5 0.3 7.9 90 0.8 W 46 69 25 37 984.7 - 2.2
31/12:22pm 9.7 -0.1 8.5 92 0.6 W 50 69 27 37 984.8 - 2.0
31/12:14pm 10.5 1.4 10.0 97 0.3 W 48 61 26 33 984.4 - 2.0
31/12:08pm 10.7 0.4 9.8 94 0.5 WNW 54 67 29 36 984.3 - 1.8
31/12:00pm 13.0 2.9 10.4 84 1.4 NNW 54 72 29 39 983.6 983.6 0.4
31/11:40am 12.9 3.2 10.6 86 1.2 NNW 52 80 28 43 984.6 - 0.2
31/11:30am 13.4 3.6 10.2 81 1.7 NNW 52 78 28 42 985.1 - 0.2
31/11:00am 13.3 4.4 10.7 84 1.4 NNW 48 72 26 39 986.3 986.3 0.2
31/10:30am 13.6 5.4 10.4 81 1.7 NNW 44 65 24 35 987.1 - 0.2
31/10:00am 13.6 4.8 10.8 83 1.5 NNW 48 76 26 41 987.9 987.9 0.2
31/09:30am 13.8 4.1 10.4 80 1.8 NW 52 80 28 43 988.2 - 0.2
31/09:00am 13.6 5.1 10.8 83 1.5 NW 46 69 25 37 989.0 989.0 21.6
31/08:44am 13.0 4.2 10.9 87 1.1 NW 48 80 26 43 989.4 - 21.6
31/08:31am 13.1 5.2 11.3 89 1.0 NW 44 80 24 43 989.5 - 21.4
31/08:30am 13.0 5.1 11.4 90 0.8 NW 44 80 24 43 989.5 - 21.4
31/08:12am 12.8 5.5 11.7 93 0.6 NW 41 63 22 34 989.6 - 20.8
31/08:08am 12.8 5.5 11.7 93 0.6 NNW 41 59 22 32 989.8 - 20.8
31/08:00am 13.5 5.7 11.0 85 1.3 NNW 43 57 23 31 990.0 990.0 20.6
31/07:30am 13.3 6.0 11.4 88 1.0 NW 41 65 22 35 990.9 - 20.6
31/07:00am 13.2 5.3 11.4 89 1.0 NW 44 67 24 36 991.0 991.0 20.6
31/06:30am 13.2 5.5 11.6 90 0.9 NW 43 61 23 33 991.3 - 20.6
31/06:00am 13.0 6.2 12.1 94 0.5 NW 39 65 21 35 991.6 991.6 20.6
31/05:30am 12.5 5.4 12.3 99 0.1 NW 41 59 22 32 992.3 - 20.6
31/05:29am 12.6 5.2 12.4 99 0.1 NW 43 59 23 32 992.3 - 20.6
31/05:25am 12.5 5.1 12.3 99 0.1 NW 43 69 23 37 992.3 - 20.6
31/05:06am 12.4 4.7 12.2 99 0.1 NW 44 65 24 35 992.8 - 20.6
31/05:00am 12.5 5.1 12.3 99 0.1 NW 43 65 23 35 992.7 992.7 19.6
31/04:30am 13.2 6.1 12.1 93 0.6 NW 41 59 22 32 993.6 - 18.6
31/04:00am 13.2 5.5 12.1 93 0.6 NW 44 65 24 35 993.7 993.7 18.6
31/03:45am 13.1 5.5 12.3 95 0.4 NW 44 69 24 37 993.7 - 18.6
31/03:30am 13.0 5.5 12.7 98 0.2 NW 44 67 24 36 993.9 - 18.6
31/03:29am 12.9 5.6 12.7 99 0.1 NW 43 61 23 33 993.9 - 18.6
31/03:25am 12.9 5.9 12.6 98 0.2 NW 41 61 22 33 993.9 - 18.4
31/03:24am 13.0 6.4 12.5 97 0.3 NW 39 54 21 29 994.1 - 18.0
31/03:08am 13.1 6.5 12.5 96 0.3 NW 39 57 21 31 994.3 - 16.6
31/03:00am 13.0 6.0 12.5 97 0.3 WNW 41 65 22 35 994.5 994.5 16.6
31/02:46am 12.2 5.8 12.0 99 0.1 WNW 37 57 20 31 994.5 - 15.6
31/02:33am 12.4 5.6 12.1 98 0.2 W 39 56 21 30 994.9 - 13.2
31/02:32am 12.4 5.2 11.9 97 0.3 W 41 56 22 30 994.9 - 13.2
31/02:30am 12.6 5.8 12.0 96 0.3 W 39 56 21 30 994.9 - 12.8
31/02:13am 12.2 6.2 12.0 99 0.1 WNW 35 57 19 31 995.1 - 12.6
31/02:00am 12.2 6.2 12.0 99 0.1 WNW 35 52 19 28 995.4 995.4 12.2
31/01:41am 12.2 6.6 12.0 99 0.1 WNW 33 44 18 24 995.7 - 12.2
31/01:30am 12.4 6.8 12.2 99 0.1 WNW 33 50 18 27 995.9 - 11.6
31/01:26am 12.5 6.6 12.3 99 0.1 WNW 35 56 19 30 995.8 - 11.6
31/01:17am 12.5 7.0 12.3 99 0.1 WNW 33 52 18 28 995.9 - 11.4
31/01:00am 12.5 6.2 12.3 99 0.1 WNW 37 56 20 30 996.0 996.0 10.8
31/12:30am 12.5 6.6 12.3 99 0.1 NW 35 57 19 31 996.3 - 9.0
31/12:00am 12.4 4.0 12.2 99 0.1 NW 48 69 26 37 997.1 997.1 8.2
 
Date/Time
EST
Temp
°C
App
Temp
°C
Dew
Point
Rel
Hum
%
Delta-T
°C
Wind Press
QNH
hPa
Press
MSL
hPa
Rain
since 9 am
mm
Dir
 
Spd
km/h
Gust
km/h
Spd
kts
Gust
kts
30/11:33pm 12.5 6.6 12.3 99 0.1 NW 35 54 19 29 997.5 - 6.6
30/11:30pm 12.5 6.6 12.3 99 0.1 NW 35 54 19 29 997.5 - 6.6
30/11:00pm 12.9 6.1 12.1 95 0.4 NW 39 57 21 31 997.8 997.8 5.4
30/10:53pm 13.1 6.3 12.0 93 0.6 NW 39 57 21 31 997.7 - 5.2
30/10:50pm 13.2 6.0 11.9 92 0.7 NW 41 56 22 30 997.8 - 5.2
30/10:33pm 13.3 7.8 11.7 90 0.9 WNW 32 54 17 29 998.2 - 5.0
30/10:30pm 13.2 7.6 11.4 89 1.0 WNW 32 43 17 23 998.1 - 5.0
30/10:00pm 13.1 7.3 11.5 90 0.9 NW 33 46 18 25 998.5 998.5 5.0
30/09:31pm 12.5 6.8 11.1 91 0.7 WNW 32 43 17 23 999.0 - 5.0
30/09:30pm 12.5 6.8 11.2 92 0.7 WNW 32 43 17 23 999.1 - 5.0
30/09:15pm 12.4 6.2 11.5 94 0.5 WNW 35 56 19 30 999.2 - 5.0
30/09:11pm 12.8 7.0 11.5 92 0.7 NW 33 46 18 25 999.6 - 4.4
30/09:00pm 13.2 7.2 10.7 85 1.3 WNW 33 57 18 31 999.1 999.1 4.2
30/08:55pm 13.2 7.4 10.7 85 1.3 WNW 32 57 17 31 999.1 - 4.2
30/08:30pm 12.8 8.2 11.0 89 0.9 WNW 26 35 14 19 999.3 - 4.2
30/08:00pm 12.7 7.1 11.6 93 0.6 WNW 32 43 17 23 999.8 999.9 4.2
30/07:35pm 12.8 7.5 11.2 90 0.8 WNW 30 48 16 26 999.8 - 4.0
30/07:30pm 12.5 6.8 11.2 92 0.7 WNW 32 46 17 25 999.9 - 4.0
30/07:11pm 12.5 4.8 11.4 93 0.6 WNW 43 63 23 34 999.7 - 4.0
30/07:00pm 12.6 2.9 11.7 94 0.5 WNW 54 83 29 45 999.8 999.9 4.0
30/06:53pm 12.8 2.5 11.7 93 0.6 WNW 57 83 31 45 999.9 - 4.0
30/06:51pm 12.7 7.1 12.1 96 0.3 NW 33 74 18 40 1000.0 - 4.0
30/06:50pm 12.8 7.3 12.3 97 0.3 NW 33 54 18 29 999.9 - 3.6
30/06:45pm 12.9 8.2 12.1 95 0.4 NW 28 44 15 24 999.6 - 3.2
30/06:41pm 13.0 8.3 12.1 94 0.5 NW 28 44 15 24 999.6 - 3.2
30/06:30pm 12.7 7.7 12.1 96 0.3 WNW 30 44 16 24 999.8 - 3.0
30/06:19pm 12.9 7.1 11.6 92 0.7 WNW 33 52 18 28 999.9 - 2.8
30/06:00pm 13.6 7.8 10.8 83 1.5 WNW 32 43 17 23 999.9 1000.0 2.2
30/05:30pm 13.2 6.4 10.6 84 1.4 WNW 37 59 20 32 1000.0 - 2.2
30/05:00pm 13.8 5.8 10.6 81 1.7 WNW 43 61 23 33 999.8 999.9 2.2
30/04:30pm 14.1 7.1 11.1 82 1.6 WNW 39 65 21 35 999.6 - 2.2
30/04:00pm 13.5 6.2 11.7 89 1.0 WNW 41 67 22 36 999.6 999.7 2.2
30/03:58pm 13.6 6.3 11.7 88 1.0 WNW 41 67 22 36 999.5 - 2.2
30/03:54pm 13.4 6.9 11.6 89 1.0 WNW 37 52 20 28 999.6 - 2.2
30/03:38pm 13.3 6.9 11.9 91 0.7 WNW 37 50 20 27 999.5 - 2.0
30/03:31pm 14.1 7.5 11.3 83 1.5 WNW 37 56 20 30 999.5 - 1.8
30/03:30pm 14.1 7.1 11.1 82 1.6 WNW 39 56 21 30 999.5 - 1.8
30/03:01pm 13.9 7.6 10.9 82 1.6 WNW 35 54 19 29 999.8 - 1.8
30/03:00pm 13.8 7.1 11.0 83 1.5 WNW 37 54 20 29 999.8 999.9 1.8
30/02:48pm 14.1 7.9 11.3 83 1.5 WNW 35 54 19 29 999.7 - 1.8
30/02:46pm 14.1 8.5 12.1 88 1.1 WNW 33 50 18 27 999.8 - 1.8
30/02:31pm 13.2 6.8 11.9 92 0.7 WNW 37 52 20 28 999.9 - 1.8
30/02:30pm 13.3 7.3 12.0 92 0.7 WNW 35 50 19 27 999.9 - 1.8
30/02:00pm 14.0 6.4 11.9 87 1.1 WNW 43 67 23 36 1000.1 1000.2 1.2
30/01:59pm 13.8 6.6 12.0 89 1.0 WNW 41 65 22 35 1000.1 - 1.2
30/01:54pm 13.8 7.1 12.4 91 0.8 WNW 39 50 21 27 1000.2 - 1.2
30/01:34pm 12.8 7.5 12.5 98 0.2 WNW 32 50 17 27 1000.4 - 1.2
30/01:30pm 12.8 7.9 12.6 99 0.1 WNW 30 43 16 23 1000.5 - 1.2
30/01:26pm 12.8 7.8 12.3 97 0.3 WNW 30 44 16 24 1000.5 - 1.0
30/01:21pm 13.0 7.7 12.4 96 0.3 WNW 32 46 17 25 1000.4 - 0.8
30/01:09pm 13.2 7.4 12.7 97 0.3 WNW 35 56 19 30 1000.5 - 0.8
30/01:07pm 13.0 7.1 12.4 96 0.3 WNW 35 56 19 30 1000.6 - 0.8
30/01:01pm 12.9 7.5 12.1 95 0.4 WNW 32 50 17 27 1000.6 - 0.8
30/01:00pm 12.7 7.0 11.8 94 0.5 WNW 33 50 18 27 1000.6 1000.7 0.8
30/12:32pm 12.9 5.8 11.0 88 1.0 NW 39 50 21 27 1001.2 - 0.8
30/12:30pm 13.3 6.2 10.8 85 1.3 NW 39 50 21 27 1001.2 - 0.8
30/12:09pm 13.8 7.5 11.0 83 1.5 WNW 35 61 19 33 1001.6 - 0.8
30/12:00pm 13.4 7.5 11.1 86 1.2 WNW 33 46 18 25 1001.9 1002.0 0.8
30/11:30am 12.9 6.6 11.0 88 1.0 WNW 35 50 19 27 1002.5 - 0.8
30/11:02am 12.5 6.5 10.2 86 1.2 WNW 32 54 17 29 1003.0 - 0.6
30/11:00am 12.7 7.3 10.8 88 1.0 WNW 30 41 16 22 1003.0 1003.1 0.6
30/10:35am 12.4 6.5 10.6 89 0.9 WNW 32 50 17 27 1003.0 - 0.4
30/10:30am 12.6 6.1 10.5 87 1.1 WNW 35 50 19 27 1003.2 - 0.4
30/10:00am 12.6 7.0 10.1 85 1.3 WNW 30 41 16 22 1003.0 1003.1 0.0
30/09:30am 12.3 8.3 10.4 88 1.0 WNW 22 32 12 17 1003.2 - 0.0
30/09:10am 11.9 6.7 10.3 90 0.8 WNW 28 41 15 22 1003.2 - 0.0
30/09:00am 11.5 5.7 10.7 95 0.4 W 32 44 17 24 1003.2 1003.3 6.4
30/08:54am 11.7 5.8 10.4 92 0.7 WNW 32 44 17 24 1003.2 - 6.4
30/08:30am 11.8 8.1 10.0 89 0.9 WNW 20 30 11 16 1003.0 - 6.2
30/08:00am 11.4 5.7 9.7 89 0.9 WNW 30 39 16 21 1003.1 1003.2 6.2
30/07:57am 11.4 5.3 9.8 90 0.8 WNW 32 39 17 21 1003.1 - 6.2
30/07:30am 10.1 7.1 7.5 84 1.2 WNW 13 20 7 11 1002.9 - 6.2
30/07:00am 10.4 7.4 7.6 83 1.4 WNW 13 20 7 11 1002.6 1002.7 6.2
30/06:30am 9.8 7.0 7.1 83 1.3 WNW 11 15 6 8 1002.8 - 6.2
30/06:00am 9.9 6.0 7.0 82 1.4 WNW 17 24 9 13 1002.8 1002.9 6.2
30/05:30am 10.2 6.4 7.4 83 1.3 WNW 17 22 9 12 1002.4 - 6.2
30/05:00am 10.1 5.8 7.2 82 1.4 W 19 26 10 14 1002.3 1002.4 6.2
30/04:30am 10.4 4.6 6.2 75 2.0 W 26 35 14 19 1002.2 - 6.2
30/04:09am 10.8 3.8 5.8 71 2.3 W 32 50 17 27 1001.9 - 6.2
30/04:00am 10.7 3.6 5.7 71 2.3 W 32 44 17 24 1001.9 1002.0 6.2
30/03:30am 10.9 3.9 5.9 71 2.3 W 32 46 17 25 1001.7 - 6.2
30/03:00am 11.0 3.4 6.0 71 2.3 W 35 48 19 26 1001.4 1001.5 6.2
30/02:30am 11.5 3.5 5.8 68 2.7 W 37 54 20 29 1001.2 - 6.2
30/02:00am 11.6 2.4 5.5 66 2.8 W 43 65 23 35 1000.9 1001.0 6.2
30/01:30am 11.8 3.5 6.1 68 2.7 W 39 57 21 31 1000.4 - 6.2
30/01:03am 11.9 4.5 6.8 71 2.4 W 35 56 19 30 999.9 - 6.2
30/01:00am 11.8 4.5 7.1 73 2.3 W 35 50 19 27 999.9 1000.0 6.2
30/12:30am 12.1 4.0 6.8 70 2.5 W 39 57 21 31 999.5 - 6.2
30/12:00am 12.1 2.6 6.6 69 2.6 W 46 69 25 37 999.1 999.1 6.2
 
Date/Time
EST
Temp
°C
App
Temp
°C
Dew
Point
Rel
Hum
%
Delta-T
°C
Wind Press
QNH
hPa
Press
MSL
hPa
Rain
since 9 am
mm
Dir
 
Spd
km/h
Gust
km/h
Spd
kts
Gust
kts
29/11:30pm 11.8 0.4 6.5 70 2.5 W 56 78 30 42 998.5 - 6.2
29/11:29pm 11.9 -0.1 6.4 69 2.6 W 59 78 32 42 998.4 - 6.2
29/11:28pm 12.2 -0.6 6.5 68 2.7 W 63 78 34 42 998.3 - 6.2
29/11:00pm 11.4 2.7 7.7 78 1.8 W 43 65 23 35 998.5 998.5 6.2
29/10:30pm 11.7 2.9 7.4 75 2.1 W 43 65 23 35 998.1 - 6.0
29/10:08pm 11.2 4.9 9.1 87 1.0 W 32 50 17 27 998.3 - 6.0
29/10:02pm 11.2 5.0 9.5 89 0.9 W 32 43 17 23 998.1 - 6.0
29/10:00pm 11.1 4.9 9.4 89 0.9 W 32 43 17 23 998.0 998.0 6.0
29/09:43pm 10.7 4.6 9.9 95 0.4 WSW 32 54 17 29 998.0 - 6.0
29/09:37pm 10.9 5.2 9.8 93 0.6 W 30 39 16 21 998.0 - 5.2
29/09:34pm 10.9 5.5 9.5 91 0.7 W 28 39 15 21 997.9 - 5.2
29/09:30pm 11.1 4.9 9.4 89 0.9 W 32 39 17 21 997.7 - 5.0
29/09:21pm 11.0 1.7 9.3 89 0.8 W 48 67 26 36 997.5 - 5.0
29/09:14pm 11.3 0.4 9.0 86 1.1 W 56 67 30 36 997.7 - 5.0
29/09:01pm 12.0 4.4 7.7 75 2.1 W 37 61 20 33 997.3 - 4.4
29/09:00pm 11.7 4.6 8.2 79 1.7 W 35 44 19 24 997.4 997.4 4.4
29/08:45pm 11.6 4.4 9.0 84 1.3 W 37 56 20 30 997.4 - 4.4
29/08:44pm 11.7 4.1 9.1 84 1.3 W 39 56 21 30 997.3 - 4.4
29/08:30pm 12.1 3.1 8.9 81 1.6 WNW 46 69 25 37 996.7 - 4.4
29/08:27pm 11.9 3.6 9.3 84 1.3 WNW 43 61 23 33 996.8 - 4.4
29/08:00pm 12.3 3.8 9.3 82 1.5 WNW 44 65 24 35 996.3 996.3 4.4
29/07:30pm 12.0 3.2 9.7 86 1.2 W 46 72 25 39 996.3 - 4.4
29/07:10pm 12.1 3.8 10.0 87 1.1 WNW 44 69 24 37 995.8 - 4.4
29/07:00pm 12.0 5.6 10.6 91 0.7 WNW 35 57 19 31 995.6 995.6 4.4
29/06:48pm 11.9 6.0 11.1 95 0.4 W 33 43 18 23 995.3 - 4.2
29/06:30pm 12.4 1.9 10.3 87 1.1 W 56 78 30 42 995.1 - 3.2
29/06:07pm 12.8 3.2 9.6 81 1.6 W 50 72 27 39 994.8 - 3.0
29/06:00pm 12.9 2.1 9.9 82 1.6 W 57 80 31 43 994.7 994.7 3.0
29/05:52pm 12.8 2.5 10.9 88 1.0 WNW 56 76 30 41 994.3 - 3.0

Other Formats:

Comma delimited format used in spreadsheet applications
http://www.bom.gov.au/fwo/IDT60801/IDT60801.95957.axf

JavaScript Object Notation format (JSON) in row-major order
http://www.bom.gov.au/fwo/IDT60801/IDT60801.95957.json